Time;durP1;ratioP1;P1;durP2;ratioP2;P2;SDS_P1;SDS_P2;PMS_P1;PMS_P2;Temp;Humidity;BMP_temperature;BMP_pressure;BME280_temperature;BME280_humidity;BME280_pressure;Samples;Min_cycle;Max_cycle;Signal;HPM_P1;HPM_P2
2022/06/16 00:01:02;;;;;;;6.90;3.05;;;;;;;23.06;79.24;101818.91;5061673;28;20088;-51
2022/06/16 00:03:27;;;;;;;6.47;3.30;;;;;;;22.98;79.92;101820.19;5071714;28;20050;-50
2022/06/16 00:05:53;;;;;;;6.20;2.70;;;;;;;22.58;80.78;101822.19;5077329;28;20051;-49
2022/06/16 00:08:19;;;;;;;6.15;2.50;;;;;;;22.70;80.94;101824.78;5071752;28;20100;-52
2022/06/16 00:13:35;;;;;;;7.77;2.73;;;;;;;22.73;81.20;101818.81;5070354;28;19934;-48
2022/06/16 00:16:01;;;;;;;4.67;2.93;;;;;;;22.61;82.37;101816.22;5064170;28;20120;-54
2022/06/16 00:18:27;;;;;;;;;;;;;;;22.59;82.85;101817.53;5070979;28;20024;-51
2022/06/16 00:20:53;;;;;;;10.37;3.03;;;;;;;22.54;82.86;101826.50;5090831;28;19916;-52
2022/06/16 00:23:18;;;;;;;6.65;2.50;;;;;;;22.52;82.79;101834.09;5082135;28;20029;-52
2022/06/16 00:25:44;;;;;;;5.75;2.75;;;;;;;22.48;83.45;101828.31;5095580;28;20139;-53
2022/06/16 00:28:09;;;;;;;4.85;2.70;;;;;;;22.01;85.75;101828.72;5081347;28;20046;-53
2022/06/16 00:30:35;;;;;;;9.50;2.85;;;;;;;21.94;87.28;101833.50;5092946;28;20064;-48
2022/06/16 00:33:01;;;;;;;7.55;2.88;;;;;;;22.02;87.36;101827.63;5095667;28;20169;-52
2022/06/16 00:35:26;;;;;;;5.80;2.70;;;;;;;21.96;87.60;101839.53;5095516;28;20033;-53
2022/06/16 00:37:52;;;;;;;6.30;2.83;;;;;;;21.99;87.24;101834.38;5095275;28;20383;-50
2022/06/16 00:40:18;;;;;;;5.82;2.92;;;;;;;21.99;87.32;101836.31;5087830;28;20035;-50
2022/06/16 00:42:44;;;;;;;9.05;3.58;;;;;;;21.76;89.94;101835.41;5094178;28;20051;-52
2022/06/16 00:45:28;;;;;;;;;;;;;;;21.81;90.22;101835.47;5083802;28;20032;-54
2022/06/16 00:47:54;;;;;;;4.70;2.60;;;;;;;21.56;92.00;101827.66;5085853;28;19912;-52
2022/06/16 00:50:19;;;;;;;6.07;3.10;;;;;;;21.67;91.83;101829.53;5095327;28;20281;-54
2022/06/16 00:52:45;;;;;;;7.70;3.20;;;;;;;22.08;90.86;101831.25;5096525;28;20059;-51
2022/06/16 00:55:15;;;;;;;8.15;3.22;;;;;;;21.63;91.43;101828.34;5077541;28;20033;-53
2022/06/16 00:57:45;;;;;;;6.27;2.90;;;;;;;21.41;93.76;101833.66;5084313;28;20402;-50
2022/06/16 01:02:55;;;;;;;6.80;3.30;;;;;;;21.42;95.10;101836.16;5081645;28;20284;-54
2022/06/16 01:05:23;;;;;;;6.67;2.90;;;;;;;21.48;94.22;101834.34;5089098;28;20356;-53
2022/06/16 01:07:50;;;;;;;7.83;3.17;;;;;;;21.31;96.86;101831.56;5081371;28;20028;-52
2022/06/16 01:10:17;;;;;;;9.90;3.20;;;;;;;21.06;97.23;101838.19;5082305;28;20285;-49
2022/06/16 01:16:23;;;;;;;6.90;3.00;;;;;;;20.87;98.56;101849.22;5094486;28;20269;-55
2022/06/16 01:19:31;;;;;;;12.33;3.50;;;;;;;20.95;97.67;101847.22;5084126;28;20265;-53
2022/06/16 01:22:36;;;;;;;6.37;3.20;;;;;;;21.16;97.06;101848.44;5080852;28;20332;-54
2022/06/16 01:25:33;;;;;;;6.10;2.90;;;;;;;21.21;95.26;101853.97;5079406;28;20812;-51
2022/06/16 01:28:07;;;;;;;7.35;3.30;;;;;;;21.35;93.14;101851.81;5092867;28;20269;-49
2022/06/16 01:30:54;;;;;;;6.53;2.90;;;;;;;21.11;96.09;101859.22;5094887;28;20036;-50
2022/06/16 01:33:40;;;;;;;8.53;2.73;;;;;;;20.99;97.75;101867.41;5078299;28;20285;-55
2022/06/16 01:36:23;;;;;;;8.80;3.40;;;;;;;20.96;98.38;101874.16;5079736;28;20277;-53
2022/06/16 01:38:55;;;;;;;10.27;3.20;;;;;;;20.92;98.10;101862.94;5080560;28;20047;-52
2022/06/16 01:41:32;;;;;;;7.67;2.87;;;;;;;20.99;97.34;101867.41;5083399;28;20266;-54
2022/06/16 01:44:15;;;;;;;8.10;3.00;;;;;;;20.70;99.55;101862.72;5081317;28;20333;-54
2022/06/16 01:46:46;;;;;;;8.60;3.00;;;;;;;20.72;99.03;101857.84;5075648;28;20780;-55
2022/06/16 01:49:27;;;;;;;7.47;3.23;;;;;;;20.47;100.00;101860.88;5078548;28;20281;-50
2022/06/16 01:51:58;;;;;;;7.73;3.60;;;;;;;20.44;100.00;101854.00;5093276;28;20289;-55
2022/06/16 01:54:35;;;;;;;8.80;3.30;;;;;;;20.45;100.00;101860.28;5079121;28;20272;-55
2022/06/16 01:57:10;;;;;;;5.68;3.50;;;;;;;20.56;99.66;101859.41;5094046;28;20272;-52
2022/06/16 01:59:46;;;;;;;5.77;2.53;;;;;;;20.61;97.86;101856.00;5077601;28;20029;-53
2022/06/16 02:02:15;;;;;;;9.45;3.22;;;;;;;20.66;97.90;101850.66;5080637;28;20352;-53
2022/06/16 02:04:49;;;;;;;7.03;3.30;;;;;;;20.52;98.06;101852.81;5086653;28;20068;-52
2022/06/16 02:07:25;;;;;;;7.47;3.27;;;;;;;20.43;98.25;101849.63;5081199;28;20292;-54
2022/06/16 02:09:56;;;;;;;7.27;3.67;;;;;;;20.30;99.61;101849.88;5077440;28;20293;-49
2022/06/16 02:15:43;;;;;;;6.77;2.83;;;;;;;20.11;100.00;101858.16;5079049;28;20292;-52
2022/06/16 02:18:13;;;;;;;4.50;2.97;;;;;;;20.30;100.00;101853.41;5080560;28;20287;-52
2022/06/16 02:21:01;;;;;;;6.93;3.13;;;;;;;20.08;100.00;101864.06;5068276;28;20273;-54
2022/06/16 02:23:27;;;;;;;6.40;3.10;;;;;;;19.71;100.00;101856.84;5092446;28;20273;-54
2022/06/16 02:25:56;;;;;;;6.35;3.42;;;;;;;19.67;100.00;101861.09;5093279;28;20275;-50
2022/06/16 02:28:22;;;;;;;9.13;3.23;;;;;;;20.18;100.00;101864.28;5092840;28;20048;-52
2022/06/16 02:31:22;;;;;;;7.50;3.17;;;;;;;19.81;100.00;101871.75;5041810;28;20312;-50
2022/06/16 02:33:59;;;;;;;9.00;3.50;;;;;;;19.56;100.00;101873.56;5092237;28;20335;-51
2022/06/16 02:36:42;;;;;;;9.97;3.37;;;;;;;19.70;100.00;101884.22;5043104;28;20333;-51
2022/06/16 02:39:23;;;;;;;8.13;3.80;;;;;;;20.01;100.00;101898.59;5065080;28;20269;-51
2022/06/16 02:42:07;;;;;;;7.50;3.47;;;;;;;19.85;100.00;101891.94;5047354;28;20257;-53
2022/06/16 02:44:53;;;;;;;11.47;3.33;;;;;;;19.73;100.00;101889.19;5044587;28;20273;-53
2022/06/16 02:47:58;;;;;;;7.07;3.58;;;;;;;19.64;100.00;101894.13;5091833;28;20292;-51
2022/06/16 02:50:54;;;;;;;6.70;3.43;;;;;;;19.44;100.00;101891.69;5049312;28;20096;-54
2022/06/16 02:53:42;;;;;;;7.93;3.83;;;;;;;19.52;100.00;101891.34;5060790;28;20283;-54
2022/06/16 02:56:27;;;;;;;7.07;3.80;;;;;;;19.58;100.00;101892.34;5051171;28;20316;-51
2022/06/16 02:59:01;;;;;;;8.73;3.27;;;;;;;19.59;100.00;101900.22;5067009;28;20269;-49
2022/06/16 03:01:32;;;;;;;8.70;3.87;;;;;;;19.66;100.00;101896.63;5063738;28;20269;-50
2022/06/16 03:04:18;;;;;;;5.93;3.30;;;;;;;19.37;100.00;101902.63;5090931;28;20257;-52
2022/06/16 03:06:45;;;;;;;;;;;;;;;19.47;100.00;101902.06;5044526;28;20282;-54
2022/06/16 03:09:12;;;;;;;11.27;6.13;;;;;;;19.52;100.00;101904.13;5051949;28;19916;-51
2022/06/16 03:11:40;;;;;;;19.57;8.93;;;;;;;19.26;100.00;101911.50;5050358;28;20280;-55
2022/06/16 03:14:09;;;;;;;14.10;6.13;;;;;;;19.31;100.00;101917.09;5092286;28;20257;-49
2022/06/16 03:16:40;;;;;;;22.87;12.53;;;;;;;19.31;100.00;101920.63;5049298;28;20270;-54
2022/06/16 03:19:06;;;;;;;14.10;6.75;;;;;;;19.21;100.00;101914.94;5036452;28;20277;-53
2022/06/16 03:21:32;;;;;;;20.15;8.32;;;;;;;19.27;100.00;101919.44;5061630;28;20038;-55
2022/06/16 03:23:58;;;;;;;8.65;4.20;;;;;;;18.96;100.00;101932.06;5067778;28;20066;-51
2022/06/16 03:26:25;;;;;;;28.50;11.33;;;;;;;18.81;100.00;101932.44;5060852;28;20106;-54
2022/06/16 03:28:54;;;;;;;30.33;15.10;;;;;;;18.87;100.00;101944.25;5062568;28;20308;-50
2022/06/16 03:31:20;;;;;;;47.20;22.23;;;;;;;18.73;100.00;101930.84;5046964;28;20291;-52
2022/06/16 03:33:48;;;;;;;30.90;13.57;;;;;;;18.64;100.00;101929.47;5047665;28;20114;-55
2022/06/16 03:36:14;;;;;;;23.58;11.00;;;;;;;18.89;100.00;101924.00;5049806;28;20269;-51
2022/06/16 03:38:43;;;;;;;72.13;32.90;;;;;;;19.09;100.00;101941.13;5064748;28;20061;-53
2022/06/16 03:41:12;;;;;;;39.93;19.77;;;;;;;19.08;100.00;101945.75;5064599;28;20269;-54
2022/06/16 03:43:39;;;;;;;20.07;10.10;;;;;;;19.03;100.00;101951.81;5064517;28;20272;-54
2022/06/16 03:46:14;;;;;;;21.00;8.30;;;;;;;19.17;100.00;101954.41;5061373;28;20277;-53
2022/06/16 03:48:42;;;;;;;22.03;10.60;;;;;;;19.15;100.00;101951.09;5063854;28;20336;-54
2022/06/16 03:51:09;;;;;;;20.23;9.30;;;;;;;19.09;100.00;101954.69;5065903;28;20277;-52
2022/06/16 03:53:37;;;;;;;15.23;8.15;;;;;;;18.97;100.00;101960.84;5065015;28;20317;-53
2022/06/16 03:56:05;;;;;;;10.73;5.30;;;;;;;19.04;100.00;101963.50;4996101;28;20302;-52
2022/06/16 03:58:33;;;;;;;10.40;4.20;;;;;;;18.94;100.00;101957.72;5064596;28;20347;-56
2022/06/16 04:00:59;;;;;;;11.27;5.10;;;;;;;18.83;100.00;101962.84;5070658;28;20313;-54
2022/06/16 04:06:14;;;;;;;11.27;3.90;;;;;;;18.71;100.00;101959.22;5066914;28;19914;-52
2022/06/16 04:08:41;;;;;;;11.93;4.40;;;;;;;18.46;100.00;101958.19;5064477;28;20269;-56
2022/06/16 04:11:27;;;;;;;8.83;4.40;;;;;;;18.62;100.00;101955.94;5069824;28;20284;-53
2022/06/16 04:14:07;;;;;;;7.10;4.30;;;;;;;18.57;100.00;101950.38;5064367;28;20276;-51
2022/06/16 04:16:46;;;;;;;10.27;3.90;;;;;;;18.81;100.00;101953.28;5064205;28;20272;-51
2022/06/16 04:19:16;;;;;;;10.47;5.00;;;;;;;18.83;100.00;101962.00;5066920;28;20292;-53
2022/06/16 04:21:45;;;;;;;15.50;5.27;;;;;;;18.73;100.00;101963.38;5058649;28;20344;-52
2022/06/16 04:24:33;;;;;;;11.83;5.17;;;;;;;18.94;100.00;101969.41;4997869;28;20324;-50
2022/06/16 04:26:59;;;;;;;9.53;4.23;;;;;;;18.77;100.00;101972.69;5065603;28;20027;-53
2022/06/16 04:29:25;;;;;;;8.25;3.78;;;;;;;18.79;100.00;101967.03;5065965;28;21074;-52
2022/06/16 04:31:52;;;;;;;9.50;4.07;;;;;;;18.93;100.00;101967.75;5067788;28;20119;-52
2022/06/16 04:34:17;;;;;;;9.90;4.43;;;;;;;18.82;100.00;101977.47;4995627;28;20264;-52
2022/06/16 04:36:44;;;;;;;10.37;4.40;;;;;;;18.84;100.00;101979.94;5065977;28;20561;-50
2022/06/16 04:39:14;;;;;;;7.47;4.03;;;;;;;18.67;100.00;101982.38;5069098;28;20269;-53
2022/06/16 04:41:44;;;;;;;9.23;4.07;;;;;;;18.68;100.00;101982.16;5063165;28;20268;-50
2022/06/16 04:44:13;;;;;;;15.03;4.70;;;;;;;18.80;100.00;101990.41;5065504;28;20365;-53
2022/06/16 04:46:38;;;;;;;8.18;3.58;;;;;;;18.88;100.00;101989.25;5076792;28;20257;-51
2022/06/16 04:49:04;;;;;;;9.00;3.88;;;;;;;19.08;100.00;101997.25;5066276;28;20049;-52
2022/06/16 04:51:38;;;;;;;7.17;3.80;;;;;;;18.92;100.00;101993.22;5065776;28;20031;-52
2022/06/16 04:54:05;;;;;;;11.10;3.63;;;;;;;19.02;100.00;102001.69;5063493;28;20280;-53
2022/06/16 04:56:47;;;;;;;9.53;4.03;;;;;;;19.14;100.00;102017.19;5069615;28;20273;-52
2022/06/16 04:59:31;;;;;;;14.30;4.43;;;;;;;19.21;100.00;102015.25;5053569;28;20271;-50
2022/06/16 05:02:20;;;;;;;8.80;4.07;;;;;;;19.28;100.00;102013.28;4999881;28;20283;-54
2022/06/16 05:05:15;;;;;;;8.60;3.90;;;;;;;19.09;100.00;102014.31;5003024;28;20280;-57
2022/06/16 05:07:50;;;;;;;7.97;3.87;;;;;;;19.12;100.00;102016.59;5063776;28;20276;-54
2022/06/16 05:10:38;;;;;;;5.90;3.25;;;;;;;19.08;100.00;102016.22;5065924;28;20315;-55
2022/06/16 05:13:22;;;;;;;7.33;3.27;;;;;;;19.09;100.00;102019.75;4997853;28;20060;-50
2022/06/16 05:16:06;;;;;;;7.97;3.70;;;;;;;19.07;100.00;102028.13;5063879;28;20273;-52
2022/06/16 05:19:08;;;;;;;7.50;3.77;;;;;;;19.35;100.00;102033.03;5006828;28;20311;-51
2022/06/16 05:21:40;;;;;;;7.40;3.30;;;;;;;19.44;100.00;102035.47;5064512;28;20308;-51
2022/06/16 05:24:21;;;;;;;7.87;3.07;;;;;;;19.38;100.00;102039.09;5078213;28;20349;-53
2022/06/16 05:27:11;;;;;;;9.00;3.57;;;;;;;19.29;100.00;102039.34;5070497;28;20280;-53
2022/06/16 05:29:42;;;;;;;11.43;3.27;;;;;;;19.25;100.00;102054.44;5079402;28;20276;-53
2022/06/16 05:32:35;;;;;;;10.30;3.47;;;;;;;19.10;100.00;102056.66;5052794;28;20273;-51
2022/06/16 05:35:28;;;;;;;8.63;3.10;;;;;;;19.30;100.00;102062.72;5069520;28;20268;-50
2022/06/16 05:38:33;;;;;;;8.47;2.90;;;;;;;19.41;100.00;102068.47;5020541;28;20290;-49
2022/06/16 05:41:19;;;;;;;5.55;2.88;;;;;;;19.35;100.00;102073.72;5018966;28;20272;-52
2022/06/16 05:44:00;;;;;;;7.10;2.67;;;;;;;19.35;100.00;102073.72;5061463;28;20104;-50
2022/06/16 05:46:41;;;;;;;9.00;2.93;;;;;;;19.33;100.00;102070.41;5080069;28;20269;-51
2022/06/16 05:49:07;;;;;;;9.93;4.18;;;;;;;19.42;100.00;102073.66;5076884;28;20304;-52
2022/06/16 05:51:33;;;;;;;7.72;2.33;;;;;;;19.34;100.00;102076.66;5081243;28;20402;-51
2022/06/16 05:54:04;;;;;;;6.13;2.80;;;;;;;19.56;100.00;102076.22;5071635;28;20044;-53
2022/06/16 05:56:33;;;;;;;10.70;3.30;;;;;;;19.77;100.00;102078.47;5081118;28;20348;-53
2022/06/16 05:58:59;;;;;;;4.90;2.80;;;;;;;19.78;100.00;102079.28;5083287;28;20300;-51
2022/06/16 06:01:26;;;;;;;5.70;2.50;;;;;;;19.87;100.00;102086.09;5066888;28;20275;-50
2022/06/16 06:03:58;;;;;;;9.07;2.87;;;;;;;19.97;100.00;102084.75;5073058;28;20277;-50
2022/06/16 06:06:25;;;;;;;7.83;2.60;;;;;;;19.78;100.00;102080.13;5069360;28;20307;-53
2022/06/16 06:17:18;;;;;;;7.50;2.30;;;;;;;19.97;100.00;102084.75;5072478;28;20363;-55
2022/06/16 06:19:47;;;;;;;8.47;2.17;;;;;;;19.98;100.00;102075.53;5068126;28;20044;-53
2022/06/16 06:22:15;;;;;;;4.95;1.75;;;;;;;20.12;98.84;102085.19;5064691;28;20281;-52
2022/06/16 06:24:47;;;;;;;4.37;1.90;;;;;;;20.26;98.70;102077.69;5046763;28;20045;-55
2022/06/16 06:27:20;;;;;;;2.50;1.50;;;;;;;20.39;98.17;102084.81;5070447;28;20265;-55
2022/06/16 06:29:48;;;;;;;7.40;1.93;;;;;;;20.18;95.60;102084.25;5080529;28;20277;-53
2022/06/16 06:32:17;;;;;;;9.03;1.97;;;;;;;20.54;94.12;102091.72;5082013;28;20275;-50
2022/06/16 06:34:43;;;;;;;4.33;1.70;;;;;;;20.54;89.83;102091.72;5066196;28;20270;-53
2022/06/16 06:37:11;;;;;;;;;;;;;;;20.49;87.51;102092.41;5089364;28;20284;-49
2022/06/16 06:39:36;;;;;;;7.60;2.05;;;;;;;20.68;86.82;102081.47;5078346;28;19917;-54
2022/06/16 06:42:03;;;;;;;4.33;2.37;;;;;;;20.51;89.99;102089.44;5083078;28;20104;-51
2022/06/16 06:44:32;;;;;;;6.73;2.10;;;;;;;20.17;90.16;102088.03;5071963;28;20599;-52
2022/06/16 06:46:59;;;;;;;4.75;2.28;;;;;;;20.55;88.74;102085.22;5090036;28;20272;-51
2022/06/16 06:49:24;;;;;;;3.97;1.65;;;;;;;20.68;89.68;102093.13;5091370;28;20043;-53
2022/06/16 06:51:50;;;;;;;6.30;2.33;;;;;;;20.65;90.29;102095.53;5089372;28;20058;-52
2022/06/16 06:54:15;;;;;;;4.47;2.07;;;;;;;20.63;91.56;102090.31;5087714;28;20052;-51
2022/06/16 06:56:41;;;;;;;9.03;2.60;;;;;;;20.70;92.66;102093.72;5071720;28;20034;-52
2022/06/16 06:59:13;;;;;;;4.47;1.83;;;;;;;20.77;91.26;102105.34;5075434;28;20276;-51
2022/06/16 07:01:39;;;;;;;10.20;2.30;;;;;;;20.93;84.87;102105.75;5078685;28;20615;-51
2022/06/16 07:04:04;;;;;;;10.85;2.60;;;;;;;20.83;85.71;102110.94;5074794;28;20029;-55
2022/06/16 07:06:30;;;;;;;5.70;2.17;;;;;;;21.07;85.04;102111.78;5079746;28;20058;-52
2022/06/16 07:08:55;;;;;;;6.85;2.08;;;;;;;21.13;84.33;102107.31;5077381;28;20299;-52
2022/06/16 07:11:21;;;;;;;7.03;3.10;;;;;;;21.20;82.13;102111.56;5073916;28;20032;-49
2022/06/16 07:13:47;;;;;;;8.57;2.63;;;;;;;21.34;78.63;102114.06;5067585;28;20033;-52
2022/06/16 07:16:13;;;;;;;5.70;2.00;;;;;;;21.61;78.68;102116.28;5081224;28;20028;-51
2022/06/16 07:18:38;;;;;;;7.15;2.30;;;;;;;21.33;80.43;102124.09;5087178;28;20047;-53
2022/06/16 07:21:05;;;;;;;7.13;2.85;;;;;;;21.22;82.81;102124.94;5091748;28;20103;-54
2022/06/16 07:23:30;;;;;;;5.10;3.20;;;;;;;21.29;83.17;102122.91;5092723;28;20041;-54
2022/06/16 07:25:56;;;;;;;6.47;2.50;;;;;;;21.44;81.96;102127.03;5093426;28;20032;-50
2022/06/16 07:28:22;;;;;;;6.13;2.17;;;;;;;21.45;83.36;102123.25;5092607;28;20051;-53
2022/06/16 07:30:47;;;;;;;7.05;2.30;;;;;;;21.92;80.20;102125.94;5092519;28;20075;-53
2022/06/16 07:33:13;;;;;;;4.93;2.60;;;;;;;21.74;81.59;102126.09;5092263;28;20044;-50
2022/06/16 07:35:41;;;;;;;7.18;2.65;;;;;;;21.77;81.43;102140.03;5092211;28;20028;-49
2022/06/16 07:38:08;;;;;;;10.63;2.90;;;;;;;21.85;79.98;102144.31;5095222;28;20036;-50
2022/06/16 07:40:33;;;;;;;5.63;2.43;;;;;;;21.86;77.85;102139.69;5091881;28;20073;-52
2022/06/16 07:42:59;;;;;;;5.88;2.58;;;;;;;22.31;73.49;102143.56;5091724;28;20055;-50
2022/06/16 07:45:26;;;;;;;9.60;2.30;;;;;;;21.94;78.59;102149.38;5092001;28;20036;-52
2022/06/16 07:47:52;;;;;;;7.07;2.57;;;;;;;22.03;77.85;102158.84;5093598;28;20111;-54
2022/06/16 07:50:18;;;;;;;;;;;;;;;22.03;79.25;102158.84;5092765;28;20028;-51
2022/06/16 07:52:44;;;;;;;8.67;2.30;;;;;;;22.06;77.67;102161.06;5092368;28;19927;-53
2022/06/16 07:55:10;;;;;;;11.63;2.78;;;;;;;22.11;79.12;102161.16;5092213;28;20100;-52
2022/06/16 07:57:41;;;;;;;6.63;2.57;;;;;;;22.21;77.00;102171.44;5093914;28;20028;-51
2022/06/16 08:00:08;;;;;;;7.67;2.83;;;;;;;22.40;77.07;102169.38;5095646;28;20035;-52
2022/06/16 08:02:38;;;;;;;5.07;2.40;;;;;;;22.54;74.85;102172.66;5070992;28;20044;-52
2022/06/16 08:05:05;;;;;;;4.13;2.15;;;;;;;22.80;73.87;102177.75;5095598;28;20032;-51
2022/06/16 08:07:30;;;;;;;7.90;2.10;;;;;;;22.81;74.15;102179.38;5094389;28;20078;-55
2022/06/16 08:09:56;;;;;;;9.23;2.95;;;;;;;22.74;73.75;102169.47;5098072;28;20048;-54
2022/06/16 08:12:21;;;;;;;6.68;3.10;;;;;;;22.68;76.02;102175.06;5095182;28;20098;-56
2022/06/16 08:14:48;;;;;;;7.43;2.50;;;;;;;22.92;73.51;102167.59;5097048;28;20100;-53
2022/06/16 08:17:24;;;;;;;7.17;2.50;;;;;;;23.12;72.96;102179.94;5096821;28;20032;-53
2022/06/16 08:19:51;;;;;;;7.03;2.38;;;;;;;22.80;73.28;102173.13;5063299;28;20047;-54
2022/06/16 08:22:18;;;;;;;6.83;2.20;;;;;;;22.88;73.04;102177.34;5085651;28;20044;-52
2022/06/16 08:24:43;;;;;;;7.47;2.47;;;;;;;22.79;74.57;102176.94;5092007;28;20032;-55
2022/06/16 08:27:11;;;;;;;4.65;2.47;;;;;;;23.89;69.03;102177.53;5089096;28;20100;-53
2022/06/16 08:29:39;;;;;;;4.90;2.30;;;;;;;23.69;69.93;102176.19;5079871;28;20041;-54
2022/06/16 08:32:05;;;;;;;5.40;2.37;;;;;;;24.10;67.64;102189.56;5084982;28;20068;-54
2022/06/16 08:34:31;;;;;;;6.57;2.60;;;;;;;23.19;72.98;102188.78;5089409;28;20035;-54
2022/06/16 08:36:56;;;;;;;9.85;2.75;;;;;;;23.17;71.64;102193.66;5088730;28;20028;-53
2022/06/16 08:39:22;;;;;;;6.70;2.30;;;;;;;23.49;70.29;102188.44;5084039;28;20200;-54
2022/06/16 08:42:32;;;;;;;7.88;2.85;;;;;;;23.02;74.20;102196.94;5089889;28;20067;-55
2022/06/16 08:45:31;;;;;;;5.97;2.30;;;;;;;23.05;74.13;102194.53;5065383;28;20125;-53
2022/06/16 08:48:19;;;;;;;6.40;2.50;;;;;;;23.37;72.05;102189.63;5080244;28;20104;-52
2022/06/16 08:51:00;;;;;;;5.00;2.23;;;;;;;23.42;70.18;102182.34;5085526;28;20055;-52
2022/06/16 08:53:35;;;;;;;7.30;2.50;;;;;;;23.11;71.57;102181.00;5093451;28;20056;-51
2022/06/16 08:56:06;;;;;;;6.90;2.77;;;;;;;23.57;70.78;102181.75;5081970;28;20057;-54
2022/06/16 08:58:49;;;;;;;8.67;2.17;;;;;;;23.60;70.63;102181.25;5079984;28;20045;-53
2022/06/16 09:01:24;;;;;;;4.30;2.10;;;;;;;23.97;65.32;102178.97;5086760;28;20028;-50
2022/06/16 09:04:01;;;;;;;5.00;2.07;;;;;;;23.89;67.87;102172.88;5064297;28;20025;-55
2022/06/16 09:06:54;;;;;;;7.38;2.00;;;;;;;23.79;66.73;102172.75;5069809;28;20033;-55
2022/06/16 09:12:30;;;;;;;9.53;1.97;;;;;;;23.96;64.43;102177.31;5055807;28;20049;-52
2022/06/16 09:15:11;;;;;;;8.37;2.40;;;;;;;23.80;67.34;102190.81;5078687;28;20058;-56
2022/06/16 09:17:36;;;;;;;29.33;16.27;;;;;;;23.64;68.26;102197.94;5068902;28;20065;-53
2022/06/16 09:20:20;;;;;;;103.82;54.50;;;;;;;24.06;71.62;102208.34;5090161;28;20044;-54
2022/06/16 09:23:13;;;;;;;28.77;15.07;;;;;;;24.32;68.06;102216.06;5094921;28;20062;-54
2022/06/16 09:25:51;;;;;;;24.43;14.30;;;;;;;24.40;65.33;102215.59;5085727;28;20052;-55
2022/06/16 09:28:31;;;;;;;30.37;16.70;;;;;;;24.71;65.07;102210.47;5092817;28;20037;-55
2022/06/16 09:31:01;;;;;;;28.27;16.30;;;;;;;24.77;66.44;102204.00;5092537;28;20050;-51
2022/06/16 09:33:33;;;;;;;25.67;14.07;;;;;;;24.77;67.44;102204.00;5092612;28;20070;-54
2022/06/16 09:36:03;;;;;;;11.93;6.30;;;;;;;24.82;65.19;102208.69;5064477;28;20038;-57
2022/06/16 09:38:47;;;;;;;7.43;4.70;;;;;;;25.10;64.47;102217.69;5094313;28;20032;-55
2022/06/16 09:44:14;;;;;;;10.43;4.90;;;;;;;25.91;61.30;102214.94;5092232;28;20055;-54
2022/06/16 09:46:46;;;;;;;9.40;4.60;;;;;;;26.39;59.00;102225.88;5051889;28;20096;-54
2022/06/16 09:49:17;;;;;;;53.03;32.17;;;;;;;26.60;57.55;102225.94;5093903;28;20028;-52
2022/06/16 09:51:54;;;;;;;75.30;47.40;;;;;;;27.33;54.46;102230.38;5092055;28;20040;-57
2022/06/16 09:54:41;;;;;;;60.20;36.57;;;;;;;27.77;52.37;102225.41;5091298;28;20036;-51
2022/06/16 09:57:13;;;;;;;46.10;30.63;;;;;;;28.15;50.33;102227.72;5088991;28;20028;-55
2022/06/16 09:59:45;;;;;;;31.38;19.00;;;;;;;28.37;49.24;102223.78;5092675;28;20029;-52
2022/06/16 10:02:26;;;;;;;17.45;11.10;;;;;;;28.89;47.29;102229.81;5093623;28;20047;-54
2022/06/16 10:04:54;;;;;;;13.75;8.95;;;;;;;29.47;45.51;102228.22;5092772;28;20048;-52
2022/06/16 10:07:34;;;;;;;11.95;6.95;;;;;;;29.79;43.86;102235.06;5092855;28;20028;-57
2022/06/16 10:10:11;;;;;;;8.07;5.30;;;;;;;30.58;43.12;102246.75;5091941;28;20025;-54
2022/06/16 10:12:44;;;;;;;10.55;3.97;;;;;;;30.82;41.28;102254.97;5091630;28;20037;-56
2022/06/16 10:15:29;;;;;;;8.27;3.45;;;;;;;31.36;40.14;102248.31;5093233;28;20048;-56
2022/06/16 10:17:57;;;;;;;6.90;3.05;;;;;;;31.61;39.61;102241.47;5092644;28;20036;-52
2022/06/16 10:20:24;;;;;;;11.55;3.33;;;;;;;32.02;38.48;102249.00;5092187;28;20048;-53
2022/06/16 10:23:11;;;;;;;30.52;19.83;;;;;;;32.11;38.22;102249.09;5092543;28;20036;-51
2022/06/16 10:25:42;;;;;;;99.68;65.10;;;;;;;32.13;37.76;102249.59;5092712;28;20055;-56
2022/06/16 10:28:30;;;;;;;55.90;33.55;;;;;;;32.80;36.94;102249.22;5093178;28;20043;-55
2022/06/16 10:30:58;;;;;;;50.50;28.52;;;;;;;33.00;36.43;102247.94;5091497;28;20029;-53
2022/06/16 10:33:48;;;;;;;48.65;27.58;;;;;;;33.18;36.31;102246.06;5092415;28;20032;-54
2022/06/16 10:36:22;;;;;;;34.50;21.33;;;;;;;33.86;34.90;102245.91;5090774;28;20056;-53
2022/06/16 10:39:21;;;;;;;43.53;21.40;;;;;;;33.57;35.21;102238.16;5091529;28;20089;-55
2022/06/16 10:41:46;;;;;;;8.35;3.38;;;;;;;33.39;34.90;102242.75;5092331;28;20092;-58
2022/06/16 10:44:14;;;;;;;18.88;9.70;;;;;;;33.82;35.20;102253.25;5092045;28;20041;-55
2022/06/16 10:46:56;;;;;;;11.35;6.40;;;;;;;34.50;33.19;102252.13;5092839;28;20024;-53
2022/06/16 10:49:33;;;;;;;9.95;4.65;;;;;;;34.53;34.00;102242.28;5091256;28;20118;-54
2022/06/16 10:52:14;;;;;;;10.50;3.85;;;;;;;34.74;33.46;102246.03;5091352;28;20054;-51
2022/06/16 10:54:54;;;;;;;7.82;2.63;;;;;;;34.87;33.55;102247.00;5094221;28;20037;-56
2022/06/16 10:57:28;;;;;;;9.02;3.58;;;;;;;35.09;32.85;102255.50;5091279;28;20024;-51
2022/06/16 11:00:06;;;;;;;7.78;2.83;;;;;;;35.29;32.23;102243.69;5092115;28;20036;-54
2022/06/16 11:02:35;;;;;;;38.72;26.77;;;;;;;35.10;32.60;102257.13;5093572;28;20052;-53
2022/06/16 11:05:05;;;;;;;23.55;14.20;;;;;;;35.79;31.40;102251.66;5092604;28;20076;-51
2022/06/16 11:07:38;;;;;;;57.90;37.63;;;;;;;35.58;31.66;102255.19;5093933;28;20028;-51
2022/06/16 11:10:08;;;;;;;44.97;28.83;;;;;;;35.97;31.33;102260.69;5093904;28;20052;-53
2022/06/16 11:12:38;;;;;;;48.78;31.92;;;;;;;36.07;30.93;102265.94;5092860;28;20028;-52
2022/06/16 11:15:29;;;;;;;31.88;22.02;;;;;;;35.96;30.91;102264.63;5093418;28;20062;-48
2022/06/16 11:17:59;;;;;;;26.33;16.23;;;;;;;37.13;29.88;102267.81;5091372;28;20043;-50
2022/06/16 11:20:39;;;;;;;19.80;12.00;;;;;;;37.41;29.38;102264.41;5069056;28;20095;-52
2022/06/16 11:23:29;;;;;;;14.77;9.50;;;;;;;37.78;28.37;102272.81;5063002;28;20043;-50
2022/06/16 11:26:29;;;;;;;15.82;10.68;;;;;;;38.17;28.56;102272.41;5075314;28;20058;-54
2022/06/16 11:29:15;;;;;;;23.60;15.50;;;;;;;38.24;28.13;102266.25;5044634;28;20043;-54
2022/06/16 11:31:47;;;;;;;53.10;37.30;;;;;;;38.04;28.30;102263.25;5088077;28;20130;-51
2022/06/16 11:34:23;;;;;;;36.65;24.23;;;;;;;38.20;27.29;102265.31;5072070;28;20044;-49
2022/06/16 11:37:05;;;;;;;45.78;30.30;;;;;;;38.72;27.32;102266.47;5061147;28;20034;-50
2022/06/16 11:39:33;;;;;;;51.63;36.15;;;;;;;38.87;28.23;102260.09;5076743;28;20036;-51
2022/06/16 11:41:59;;;;;;;66.97;49.13;;;;;;;38.91;26.75;102260.19;5075861;28;20101;-48
2022/06/16 11:44:46;;;;;;;99.85;45.08;;;;;;;39.23;26.21;102254.66;5069449;28;20036;-49
2022/06/16 11:47:49;;;;;;;41.40;28.13;;;;;;;38.48;27.06;102256.19;5048881;28;20826;-53
2022/06/16 11:50:58;;;;;;;39.85;20.52;;;;;;;38.63;26.73;102263.81;5053155;28;20021;-50
2022/06/16 11:53:42;;;;;;;31.35;15.50;;;;;;;38.81;27.34;102247.53;5077483;28;20072;-51
2022/06/16 11:56:39;;;;;;;22.95;9.35;;;;;;;38.24;26.88;102253.09;5081849;28;20053;-55
2022/06/16 11:59:17;;;;;;;48.42;30.45;;;;;;;39.56;25.30;102255.44;5071643;28;20071;-53
2022/06/16 12:01:46;;;;;;;74.05;50.85;;;;;;;39.62;25.92;102248.44;5076552;28;20031;-53
2022/06/16 12:04:33;;;;;;;55.55;35.45;;;;;;;38.79;26.33;102261.06;5088301;28;20225;-51
2022/06/16 12:07:06;;;;;;;47.22;33.55;;;;;;;39.99;25.76;102256.47;5063847;28;20039;-52
2022/06/16 12:10:01;;;;;;;30.40;18.63;;;;;;;40.11;25.38;102258.34;5071407;28;20104;-51
2022/06/16 12:12:52;;;;;;;21.02;13.10;;;;;;;39.87;24.80;102265.03;5056094;28;20042;-50
2022/06/16 12:15:48;;;;;;;21.20;14.50;;;;;;;40.35;24.62;102262.06;5061350;28;20041;-54
2022/06/16 12:18:35;;;;;;;17.95;10.93;;;;;;;40.06;25.23;102267.03;5065973;28;20038;-50
2022/06/16 12:21:34;;;;;;;12.35;7.47;;;;;;;40.24;25.67;102261.00;5085056;28;20052;-52